createdAt,value
2022-10-31T00:03:21.331Z,6.57
2022-10-31T00:07:38.563Z,6.82
2022-10-31T00:11:56.426Z,6.63
2022-10-31T00:16:24.907Z,6.72
2022-10-31T00:20:42.192Z,7.13
2022-10-31T00:24:59.400Z,6.60
2022-10-31T00:29:16.609Z,6.95
2022-10-31T00:33:38.843Z,7.03
2022-10-31T00:37:56.033Z,7.40
2022-10-31T00:42:13.304Z,7.13
2022-10-31T00:46:30.473Z,8.38
2022-10-31T00:50:47.709Z,8.30
2022-10-31T00:55:05.240Z,7.88
2022-10-31T00:59:22.454Z,7.75
2022-10-31T01:03:40.802Z,7.45
2022-10-31T01:07:58.917Z,8.00
2022-10-31T01:12:16.230Z,7.17
2022-10-31T01:16:33.446Z,7.63
2022-10-31T01:21:13.118Z,7.00
2022-10-31T01:25:30.330Z,7.03
2022-10-31T01:29:47.526Z,5.97
2022-10-31T01:34:05.774Z,6.53
2022-10-31T01:38:23.995Z,6.88
2022-10-31T01:42:41.288Z,6.10
2022-10-31T01:47:04.975Z,6.03
2022-10-31T01:51:26.411Z,6.15
2022-10-31T01:55:46.048Z,5.78
2022-10-31T02:00:08.339Z,5.45
2022-10-31T02:04:26.302Z,5.50
2022-10-31T02:08:44.529Z,6.73
2022-10-31T02:13:05.277Z,5.47
2022-10-31T02:17:22.467Z,5.90
2022-10-31T02:21:54.162Z,5.65
2022-10-31T02:26:35.765Z,5.40
2022-10-31T02:31:17.421Z,6.00
2022-10-31T02:35:45.305Z,5.70
2022-10-31T02:40:05.241Z,5.50
2022-10-31T02:44:32.978Z,5.75
2022-10-31T02:48:56.095Z,6.28
2022-10-31T02:53:15.854Z,5.70
2022-10-31T02:57:35.543Z,5.93
2022-10-31T03:02:08.276Z,6.50
2022-10-31T03:06:33.708Z,6.32
2022-10-31T03:11:06.091Z,6.55
2022-10-31T03:15:28.579Z,6.25
2022-10-31T03:19:50.876Z,5.65
2022-10-31T03:24:10.657Z,5.82
2022-10-31T03:28:33.019Z,5.88
2022-10-31T03:32:53.533Z,6.57
2022-10-31T03:37:15.105Z,7.00
2022-10-31T03:41:37.654Z,6.25
2022-10-31T03:45:55.600Z,6.13
2022-10-31T03:50:15.937Z,6.13
2022-10-31T03:54:46.196Z,6.03
2022-10-31T03:59:17.211Z,6.00
2022-10-31T04:03:38.084Z,5.97
2022-10-31T04:07:57.244Z,5.95
2022-10-31T04:12:16.661Z,5.97
2022-10-31T04:16:34.135Z,5.65
2022-10-31T04:21:05.487Z,6.05
2022-10-31T04:25:22.703Z,5.90
2022-10-31T04:29:39.887Z,6.22
2022-10-31T04:33:57.063Z,6.30
2022-10-31T04:38:14.359Z,6.28
2022-10-31T04:42:32.064Z,6.50
2022-10-31T04:46:49.388Z,6.47
2022-10-31T04:51:06.742Z,6.72
2022-10-31T04:55:23.927Z,6.15
2022-10-31T04:59:41.126Z,5.88
2022-10-31T05:03:58.367Z,6.10
2022-10-31T05:08:15.942Z,6.18
2022-10-31T05:12:33.104Z,5.80
2022-10-31T05:16:50.269Z,6.38
2022-10-31T05:21:07.495Z,5.97
2022-10-31T05:25:27.254Z,6.03
2022-10-31T05:29:44.461Z,7.07
2022-10-31T05:34:01.699Z,6.78
2022-10-31T05:38:19.039Z,7.43
2022-10-31T05:42:36.539Z,6.72
2022-10-31T05:46:53.746Z,6.72
2022-10-31T05:51:10.961Z,7.00
2022-10-31T05:55:29.315Z,7.82
2022-10-31T05:59:49.885Z,7.57
2022-10-31T06:04:09.692Z,6.90
2022-10-31T06:08:26.939Z,7.35
2022-10-31T06:12:44.172Z,8.05
2022-10-31T06:17:01.778Z,6.68
2022-10-31T06:21:19.341Z,7.32
2022-10-31T06:25:36.799Z,7.20
2022-10-31T06:29:54.019Z,8.02
2022-10-31T06:34:11.213Z,7.50
2022-10-31T06:38:29.130Z,7.95
2022-10-31T06:42:46.395Z,9.10
2022-10-31T06:47:03.587Z,13.55
2022-10-31T06:51:20.826Z,12.93
2022-10-31T06:55:38.100Z,11.65
2022-10-31T06:59:55.309Z,11.63
2022-10-31T07:04:12.688Z,10.23
2022-10-31T07:08:31.630Z,10.13
2022-10-31T07:12:48.861Z,10.80
2022-10-31T07:17:06.029Z,10.40
2022-10-31T07:21:23.327Z,9.55
2022-10-31T07:25:41.411Z,9.50
2022-10-31T07:29:58.591Z,8.80
2022-10-31T07:34:15.801Z,9.07
2022-10-31T07:38:33.019Z,9.15
2022-10-31T07:42:52.432Z,8.55
2022-10-31T07:47:09.612Z,7.53
2022-10-31T07:51:27.442Z,7.30
2022-10-31T07:55:44.949Z,6.28
2022-10-31T08:00:02.257Z,6.75
2022-10-31T08:04:19.505Z,6.82
2022-10-31T08:08:38.357Z,6.85
2022-10-31T08:13:01.024Z,6.65
2022-10-31T08:17:18.227Z,6.70
2022-10-31T08:21:35.423Z,6.68
2022-10-31T08:25:52.632Z,6.93
2022-10-31T08:30:10.295Z,6.20
2022-10-31T08:34:27.580Z,6.20
2022-10-31T08:38:44.747Z,5.80
2022-10-31T08:43:15.653Z,5.97
2022-10-31T08:47:32.901Z,5.50
2022-10-31T08:51:50.094Z,6.32
2022-10-31T08:56:07.691Z,5.60
2022-10-31T09:00:25.464Z,5.82
2022-10-31T09:04:42.684Z,5.70
2022-10-31T09:08:59.947Z,5.55
2022-10-31T09:13:19.565Z,5.38
2022-10-31T09:17:36.768Z,5.82
2022-10-31T09:21:55.330Z,6.05
2022-10-31T09:26:12.499Z,5.30
2022-10-31T09:30:31.890Z,5.32
2022-10-31T09:34:49.112Z,5.22
2022-10-31T09:39:06.420Z,5.18
2022-10-31T09:43:35.188Z,4.60
2022-10-31T09:47:55.373Z,5.38
2022-10-31T09:52:27.753Z,5.50
2022-10-31T09:56:45.544Z,5.70
2022-10-31T10:01:05.277Z,5.32
2022-10-31T10:05:42.249Z,4.93
2022-10-31T10:10:02.460Z,5.97
2022-10-31T10:14:47.566Z,6.57
2022-10-31T10:19:29.122Z,5.72
2022-10-31T10:23:59.677Z,6.00
2022-10-31T10:28:31.189Z,5.60
2022-10-31T10:32:54.418Z,6.07
2022-10-31T10:37:30.112Z,5.65
2022-10-31T10:42:10.612Z,6.00
2022-10-31T10:47:02.379Z,6.00
2022-10-31T10:51:39.069Z,6.35
2022-10-31T10:56:10.271Z,6.50
2022-10-31T11:00:41.605Z,6.13
2022-10-31T11:05:01.803Z,6.13
2022-10-31T11:09:19.052Z,6.45
2022-10-31T11:13:37.575Z,6.22
2022-10-31T11:17:56.994Z,6.13
2022-10-31T11:22:18.779Z,5.65
2022-10-31T11:26:38.942Z,6.20
2022-10-31T11:31:00.401Z,5.68
2022-10-31T11:35:19.607Z,5.20
2022-10-31T11:39:43.365Z,5.65
2022-10-31T11:44:16.761Z,5.80
2022-10-31T11:48:34.124Z,5.35
2022-10-31T11:52:52.597Z,5.82
2022-10-31T11:57:45.731Z,5.95
2022-10-31T12:02:03.415Z,5.75
2022-10-31T12:06:33.994Z,5.80
2022-10-31T12:11:03.229Z,6.13
2022-10-31T12:15:32.221Z,6.65
2022-10-31T12:19:55.296Z,6.72
2022-10-31T12:24:19.425Z,6.22
2022-10-31T12:28:55.241Z,6.57
2022-10-31T12:33:35.474Z,6.13
2022-10-31T12:37:58.984Z,6.07
2022-10-31T12:42:16.326Z,6.10
2022-10-31T12:47:04.230Z,6.28
2022-10-31T12:52:05.663Z,6.65
2022-10-31T12:56:37.218Z,6.35
2022-10-31T13:01:15.473Z,6.43
2022-10-31T13:05:42.095Z,6.30
2022-10-31T13:10:16.129Z,7.10
2022-10-31T13:14:42.757Z,6.35
2022-10-31T13:19:14.526Z,6.75
2022-10-31T13:23:50.421Z,6.60
2022-10-31T13:28:24.922Z,6.43
2022-10-31T13:32:44.846Z,8.05
2022-10-31T13:37:07.967Z,7.05
2022-10-31T13:41:25.091Z,6.43
2022-10-31T13:45:55.496Z,7.20
2022-10-31T13:50:24.756Z,7.15
2022-10-31T13:59:14.096Z,7.78
2022-10-31T14:03:57.720Z,7.80
2022-10-31T14:08:23.247Z,7.20
2022-10-31T14:17:00.159Z,7.97
2022-10-31T14:21:26.274Z,7.40
2022-10-31T14:25:43.471Z,7.72
2022-10-31T14:30:15.541Z,7.82
2022-10-31T14:34:38.729Z,7.03
2022-10-31T14:39:14.767Z,9.43
2022-10-31T14:44:13.633Z,9.02
2022-10-31T14:48:54.041Z,8.13
2022-10-31T14:53:36.801Z,9.82
2022-10-31T14:58:03.462Z,8.02
2022-10-31T15:03:02.241Z,7.25
2022-10-31T15:07:25.048Z,8.25
2022-10-31T15:11:42.485Z,8.65
2022-10-31T15:16:00.321Z,8.48
2022-10-31T15:20:27.284Z,8.20
2022-10-31T15:24:45.423Z,8.63
2022-10-31T15:29:06.850Z,9.10
2022-10-31T15:33:36.562Z,9.85
2022-10-31T15:37:54.359Z,11.35
2022-10-31T15:42:33.445Z,10.82
2022-10-31T15:47:02.856Z,10.70
2022-10-31T15:51:32.278Z,11.80
2022-10-31T16:00:29.115Z,10.75
2022-10-31T16:05:01.440Z,12.18
2022-10-31T16:09:23.713Z,12.50
2022-10-31T16:13:57.277Z,11.45
2022-10-31T16:18:14.620Z,13.27
2022-10-31T16:22:37.477Z,14.00
2022-10-31T16:27:02.922Z,14.00
2022-10-31T16:31:30.936Z,19.92
2022-10-31T16:35:48.441Z,32.17
2022-10-31T16:40:06.218Z,38.22
2022-10-31T16:44:27.945Z,30.35
2022-10-31T16:48:45.262Z,21.70
2022-10-31T16:53:17.730Z,21.63
2022-10-31T16:57:36.582Z,18.58
2022-10-31T17:06:15.358Z,35.28
2022-10-31T17:10:33.019Z,38.95
2022-10-31T17:14:52.301Z,37.10
2022-10-31T17:19:12.540Z,40.65
2022-10-31T17:23:30.419Z,35.70
2022-10-31T17:27:47.692Z,35.35
2022-10-31T17:32:05.211Z,33.92
2022-10-31T17:36:22.831Z,28.50
2022-10-31T17:40:42.199Z,23.67
2022-10-31T17:44:59.515Z,27.40
2022-10-31T17:49:16.748Z,27.15
2022-10-31T17:53:35.794Z,24.25
2022-10-31T17:57:53.018Z,25.42
2022-10-31T18:02:11.556Z,39.97
2022-10-31T18:06:28.859Z,63.78
2022-10-31T18:10:46.065Z,48.72
2022-10-31T18:15:03.621Z,52.13
2022-10-31T18:19:20.816Z,60.58
2022-10-31T18:23:38.015Z,52.90
2022-10-31T18:27:55.223Z,35.45
2022-10-31T18:32:12.468Z,40.25
2022-10-31T18:36:29.717Z,38.42
2022-10-31T18:40:46.925Z,34.15
2022-10-31T18:45:11.603Z,28.80
2022-10-31T18:49:40.838Z,30.77
2022-10-31T18:54:00.275Z,32.20
2022-10-31T18:58:18.004Z,34.40
2022-10-31T19:02:35.357Z,133.20
2022-10-31T19:06:52.718Z,29.00
2022-10-31T19:11:12.723Z,23.50
2022-10-31T19:15:30.207Z,25.90
2022-10-31T19:19:47.406Z,24.55
2022-10-31T19:24:05.075Z,26.65
2022-10-31T19:28:22.305Z,25.92
2022-10-31T19:32:39.668Z,26.80
2022-10-31T19:36:56.885Z,26.80
2022-10-31T19:41:21.744Z,28.05
2022-10-31T19:45:38.935Z,26.35
2022-10-31T19:49:56.138Z,31.52
2022-10-31T19:54:13.463Z,32.85
2022-10-31T19:58:32.584Z,26.05
2022-10-31T20:02:49.802Z,22.33
2022-10-31T20:07:08.248Z,26.52
2022-10-31T20:11:27.382Z,26.20
2022-10-31T20:15:44.603Z,25.58
2022-10-31T20:20:07.135Z,28.08
2022-10-31T20:24:24.591Z,30.30
2022-10-31T20:28:43.653Z,37.78
2022-10-31T20:33:01.056Z,34.90
2022-10-31T20:37:18.329Z,34.72
2022-10-31T20:41:39.476Z,23.45
2022-10-31T20:46:12.688Z,23.95
2022-10-31T20:50:29.954Z,23.42
2022-10-31T20:54:47.199Z,24.45
2022-10-31T20:59:04.513Z,25.90
2022-10-31T21:03:21.713Z,27.95
2022-10-31T21:07:39.616Z,26.13
2022-10-31T21:11:56.924Z,24.87
2022-10-31T21:16:20.329Z,25.10
2022-10-31T21:20:44.709Z,24.70
2022-10-31T21:25:02.719Z,23.95
2022-10-31T21:29:20.765Z,22.80
2022-10-31T21:33:38.680Z,21.47
2022-10-31T21:37:58.283Z,22.67
2022-10-31T21:42:18.938Z,22.35
2022-10-31T21:46:39.993Z,21.52
2022-10-31T21:50:57.393Z,20.40
2022-10-31T21:55:14.613Z,20.08
2022-10-31T21:59:31.940Z,20.42
2022-10-31T22:03:49.378Z,20.80
2022-10-31T22:08:06.601Z,21.30
2022-10-31T22:12:23.794Z,19.70
2022-10-31T22:16:42.432Z,22.40
2022-10-31T22:21:06.292Z,21.05
2022-10-31T22:25:23.553Z,23.67
2022-10-31T22:29:40.752Z,19.50
2022-10-31T22:33:58.349Z,20.08
2022-10-31T22:38:15.560Z,21.38
2022-10-31T22:42:33.223Z,19.38
2022-10-31T22:46:50.421Z,23.20
2022-10-31T22:51:15.255Z,22.38
2022-10-31T22:55:34.966Z,23.25
2022-10-31T22:59:52.167Z,22.13
2022-10-31T23:08:28.794Z,23.63
2022-10-31T23:17:21.836Z,22.50
2022-10-31T23:21:57.571Z,24.27
2022-10-31T23:26:33.595Z,21.63
2022-10-31T23:30:50.802Z,22.08
2022-10-31T23:35:10.225Z,21.95
2022-10-31T23:39:27.419Z,21.90
2022-10-31T23:43:44.624Z,22.08
2022-10-31T23:48:02.070Z,21.75
2022-10-31T23:52:19.809Z,23.98
2022-10-31T23:56:37.090Z,24.67
